TUI18H EDDF-LGIR
Flight info
| Callsign | TUI18H |
|---|---|
| Flight time | 2h 42m |
| Altitude | 35000 |
| Route | CINDY7S CINDY Z74 LAMPU DCT NOMBO Y161 MAH DCT VAVOR DCT RADIZ DCT PINDO DCT KEA UL607 GIVIS T514 XAVIS |
| Aircraft | B738/M-SDE2E3FGHIRWXY/LB1 |
Departure
| Time | 2026-05-05 13:08 |
|---|---|
| Airport | Frankfurt Main Airport (EDDF) |
Arrival
| Time | 2026-05-05 15:51 |
|---|---|
| Airport | Heraklion International Nikos Kazantzakis Airport (LGIR) |
| Time | Latitude | Longitude | Altitude | Speed | Heading |
|---|---|---|---|---|---|
| 2026-05-05 12:40 | 50.04919 | 8.59186 | 364 ft | 0 kts | 340° |
| 2026-05-05 12:53 | 50.04906 | 8.59194 | 365 ft | 2 kts | 340° |
| 2026-05-05 12:53 | 50.04893 | 8.59201 | 367 ft | 2 kts | 340° |
| 2026-05-05 12:53 | 50.04880 | 8.59208 | 367 ft | 2 kts | 340° |
| 2026-05-05 12:54 | 50.04859 | 8.59221 | 369 ft | 2 kts | 335° |
| 2026-05-05 12:54 | 50.04846 | 8.59232 | 367 ft | 1 kts | 308° |
| 2026-05-05 12:54 | 50.04842 | 8.59243 | 367 ft | 1 kts | 265° |
| 2026-05-05 12:55 | 50.04843 | 8.59252 | 367 ft | 1 kts | 255° |
| 2026-05-05 12:55 | 50.04844 | 8.59260 | 367 ft | 0 kts | 252° |
| 2026-05-05 12:57 | 50.04842 | 8.59251 | 371 ft | 2 kts | 251° |
| 2026-05-05 12:57 | 50.04831 | 8.59205 | 369 ft | 7 kts | 249° |
| 2026-05-05 12:58 | 50.04810 | 8.59115 | 369 ft | 10 kts | 250° |
| 2026-05-05 12:58 | 50.04786 | 8.59012 | 371 ft | 10 kts | 250° |
| 2026-05-05 12:58 | 50.04762 | 8.58910 | 371 ft | 10 kts | 250° |
| 2026-05-05 12:58 | 50.04738 | 8.58811 | 369 ft | 10 kts | 249° |
| 2026-05-05 12:59 | 50.04711 | 8.58717 | 368 ft | 9 kts | 245° |
| 2026-05-05 12:59 | 50.04687 | 8.58624 | 372 ft | 9 kts | 249° |
| 2026-05-05 12:59 | 50.04665 | 8.58534 | 369 ft | 9 kts | 249° |
| 2026-05-05 13:00 | 50.04630 | 8.58387 | 368 ft | 8 kts | 250° |
| 2026-05-05 13:00 | 50.04602 | 8.58268 | 366 ft | 10 kts | 250° |
| 2026-05-05 13:01 | 50.04499 | 8.57838 | 366 ft | 19 kts | 250° |
| 2026-05-05 13:01 | 50.04437 | 8.57582 | 365 ft | 19 kts | 249° |
| 2026-05-05 13:01 | 50.04406 | 8.57451 | 364 ft | 20 kts | 249° |
| 2026-05-05 13:01 | 50.04360 | 8.57256 | 362 ft | 19 kts | 249° |
| 2026-05-05 13:02 | 50.04315 | 8.57066 | 361 ft | 18 kts | 250° |
| 2026-05-05 13:02 | 50.04271 | 8.56883 | 361 ft | 18 kts | 250° |
| 2026-05-05 13:02 | 50.04226 | 8.56693 | 359 ft | 21 kts | 250° |
| 2026-05-05 13:02 | 50.04170 | 8.56460 | 358 ft | 24 kts | 250° |
| 2026-05-05 13:03 | 50.04114 | 8.56226 | 356 ft | 23 kts | 250° |
| 2026-05-05 13:03 | 50.04060 | 8.55998 | 353 ft | 22 kts | 249° |
| 2026-05-05 13:03 | 50.04006 | 8.55776 | 351 ft | 22 kts | 249° |
| 2026-05-05 13:03 | 50.03954 | 8.55561 | 349 ft | 21 kts | 249° |
| 2026-05-05 13:04 | 50.03905 | 8.55352 | 356 ft | 20 kts | 250° |
| 2026-05-05 13:04 | 50.03857 | 8.55150 | 353 ft | 20 kts | 250° |
| 2026-05-05 13:04 | 50.03810 | 8.54954 | 348 ft | 19 kts | 249° |
| 2026-05-05 13:04 | 50.03765 | 8.54766 | 356 ft | 18 kts | 249° |
| 2026-05-05 13:05 | 50.03722 | 8.54583 | 352 ft | 18 kts | 250° |
| 2026-05-05 13:05 | 50.03679 | 8.54405 | 336 ft | 17 kts | 249° |
| 2026-05-05 13:05 | 50.03638 | 8.54234 | 340 ft | 16 kts | 249° |
| 2026-05-05 13:05 | 50.03597 | 8.54064 | 339 ft | 19 kts | 249° |
| 2026-05-05 13:06 | 50.03545 | 8.53846 | 336 ft | 25 kts | 250° |
| 2026-05-05 13:06 | 50.03487 | 8.53604 | 335 ft | 23 kts | 249° |
| 2026-05-05 13:06 | 50.03432 | 8.53374 | 334 ft | 22 kts | 249° |
| 2026-05-05 13:06 | 50.03380 | 8.53153 | 335 ft | 22 kts | 250° |
| 2026-05-05 13:07 | 50.03328 | 8.52936 | 331 ft | 21 kts | 249° |
| 2026-05-05 13:07 | 50.03276 | 8.52725 | 332 ft | 20 kts | 247° |
| 2026-05-05 13:07 | 50.03174 | 8.52594 | 334 ft | 20 kts | 181° |
| 2026-05-05 13:07 | 50.03037 | 8.52598 | 330 ft | 21 kts | 179° |
| 2026-05-05 13:08 | 50.02716 | 8.52601 | 331 ft | 80 kts | 180° |
| 2026-05-05 13:08 | 50.01923 | 8.52606 | 332 ft | 142 kts | 180° |
| 2026-05-05 13:08 | 50.00836 | 8.52589 | 650 ft | 167 kts | 181° |
| 2026-05-05 13:08 | 49.99630 | 8.52633 | 1310 ft | 174 kts | 178° |
| 2026-05-05 13:09 | 49.98466 | 8.52700 | 2239 ft | 161 kts | 180° |
| 2026-05-05 13:09 | 49.97282 | 8.52686 | 2566 ft | 183 kts | 182° |
| 2026-05-05 13:09 | 49.95967 | 8.53080 | 2785 ft | 208 kts | 146° |
| 2026-05-05 13:09 | 49.95088 | 8.54906 | 2966 ft | 227 kts | 111° |
| 2026-05-05 13:10 | 49.94497 | 8.57302 | 3150 ft | 249 kts | 113° |
| 2026-05-05 13:10 | 49.93758 | 8.59846 | 3546 ft | 264 kts | 116° |
| 2026-05-05 13:10 | 49.92945 | 8.62408 | 4259 ft | 266 kts | 119° |
| 2026-05-05 13:10 | 49.92095 | 8.64972 | 5040 ft | 267 kts | 119° |
| 2026-05-05 13:11 | 49.91219 | 8.67537 | 5743 ft | 270 kts | 119° |
| 2026-05-05 13:11 | 49.90324 | 8.70108 | 6469 ft | 271 kts | 120° |
| 2026-05-05 13:11 | 49.89426 | 8.72656 | 7143 ft | 274 kts | 120° |
| 2026-05-05 13:11 | 49.88500 | 8.75256 | 7816 ft | 277 kts | 120° |
| 2026-05-05 13:12 | 49.87563 | 8.77875 | 8506 ft | 279 kts | 121° |
| 2026-05-05 13:12 | 49.86614 | 8.80514 | 9185 ft | 281 kts | 121° |
| 2026-05-05 13:12 | 49.85653 | 8.83178 | 9873 ft | 284 kts | 121° |
| 2026-05-05 13:12 | 49.84666 | 8.85905 | 10201 ft | 299 kts | 121° |
| 2026-05-05 13:13 | 49.83611 | 8.88815 | 10357 ft | 319 kts | 121° |
| 2026-05-05 13:13 | 49.82490 | 8.91900 | 10559 ft | 337 kts | 121° |
| 2026-05-05 13:13 | 49.81326 | 8.95109 | 11033 ft | 344 kts | 121° |
| 2026-05-05 13:13 | 49.80162 | 8.98315 | 11663 ft | 346 kts | 121° |
| 2026-05-05 13:14 | 49.78975 | 9.01578 | 12331 ft | 349 kts | 121° |
| 2026-05-05 13:14 | 49.77776 | 9.04865 | 12987 ft | 352 kts | 121° |
| 2026-05-05 13:14 | 49.76567 | 9.08184 | 13642 ft | 356 kts | 120° |
| 2026-05-05 13:14 | 49.75660 | 9.11777 | 14228 ft | 362 kts | 105° |
| 2026-05-05 13:15 | 49.75115 | 9.15600 | 14856 ft | 365 kts | 104° |
| 2026-05-05 13:15 | 49.74343 | 9.19293 | 15387 ft | 366 kts | 122° |
| 2026-05-05 13:15 | 49.72787 | 9.22376 | 16048 ft | 364 kts | 134° |
| 2026-05-05 13:15 | 49.71073 | 9.25301 | 16678 ft | 368 kts | 134° |
| 2026-05-05 13:16 | 49.69350 | 9.28242 | 17253 ft | 372 kts | 134° |
| 2026-05-05 13:16 | 49.67619 | 9.31230 | 17835 ft | 375 kts | 134° |
| 2026-05-05 13:16 | 49.65877 | 9.34267 | 18380 ft | 379 kts | 134° |
| 2026-05-05 13:16 | 49.64128 | 9.37324 | 18919 ft | 381 kts | 134° |
| 2026-05-05 13:17 | 49.62335 | 9.40345 | 19444 ft | 382 kts | 139° |
| 2026-05-05 13:17 | 49.60271 | 9.42920 | 19956 ft | 382 kts | 149° |
| 2026-05-05 13:17 | 49.57994 | 9.45036 | 20478 ft | 383 kts | 151° |
| 2026-05-05 13:17 | 49.55703 | 9.47090 | 20965 ft | 386 kts | 151° |
| 2026-05-05 13:18 | 49.53372 | 9.49179 | 21394 ft | 390 kts | 151° |
| 2026-05-05 13:18 | 49.51013 | 9.51307 | 21880 ft | 393 kts | 151° |
| 2026-05-05 13:18 | 49.50218 | 9.52027 | 22055 ft | 394 kts | 151° |
| 2026-05-05 13:18 | 49.47076 | 9.54886 | 22701 ft | 397 kts | 151° |
| 2026-05-05 13:19 | 49.43873 | 9.57809 | 23312 ft | 401 kts | 150° |
| 2026-05-05 13:19 | 49.41491 | 9.59983 | 23709 ft | 403 kts | 150° |
| 2026-05-05 13:19 | 49.39067 | 9.62192 | 24136 ft | 404 kts | 151° |
| 2026-05-05 13:19 | 49.36640 | 9.64400 | 24570 ft | 405 kts | 151° |
| 2026-05-05 13:20 | 49.34242 | 9.66705 | 24949 ft | 409 kts | 146° |
| 2026-05-05 13:20 | 49.32072 | 9.69553 | 25337 ft | 412 kts | 137° |
| 2026-05-05 13:20 | 49.30054 | 9.72679 | 25746 ft | 414 kts | 137° |
| 2026-05-05 13:20 | 49.28716 | 9.74766 | 25995 ft | 415 kts | 137° |
| 2026-05-05 13:21 | 49.26681 | 9.77930 | 26373 ft | 417 kts | 137° |
| 2026-05-05 13:21 | 49.23970 | 9.82113 | 26810 ft | 419 kts | 138° |
| 2026-05-05 13:21 | 49.21895 | 9.85291 | 27121 ft | 422 kts | 138° |
| 2026-05-05 13:21 | 49.19821 | 9.88454 | 27467 ft | 423 kts | 138° |
| 2026-05-05 13:22 | 49.17716 | 9.91655 | 27804 ft | 425 kts | 138° |
| 2026-05-05 13:22 | 49.15612 | 9.94849 | 28137 ft | 427 kts | 138° |
| 2026-05-05 13:22 | 49.13503 | 9.98049 | 28446 ft | 428 kts | 138° |
| 2026-05-05 13:22 | 49.11458 | 10.01148 | 28743 ft | 430 kts | 138° |
| 2026-05-05 13:23 | 49.09356 | 10.04330 | 29057 ft | 432 kts | 139° |
| 2026-05-05 13:23 | 49.07211 | 10.07571 | 29380 ft | 433 kts | 138° |
| 2026-05-05 13:23 | 49.05057 | 10.10785 | 29779 ft | 432 kts | 140° |
| 2026-05-05 13:23 | 49.02860 | 10.13897 | 30196 ft | 429 kts | 141° |
| 2026-05-05 13:24 | 49.00686 | 10.16913 | 30562 ft | 427 kts | 141° |
| 2026-05-05 13:24 | 48.98495 | 10.19965 | 30818 ft | 429 kts | 141° |
| 2026-05-05 13:24 | 48.96285 | 10.23062 | 31090 ft | 430 kts | 141° |
| 2026-05-05 13:24 | 48.94094 | 10.26147 | 31466 ft | 428 kts | 141° |
| 2026-05-05 13:25 | 48.91940 | 10.29186 | 31846 ft | 426 kts | 141° |
| 2026-05-05 13:25 | 48.89764 | 10.32252 | 32157 ft | 425 kts | 141° |
| 2026-05-05 13:25 | 48.87595 | 10.35307 | 32435 ft | 425 kts | 141° |
| 2026-05-05 13:25 | 48.85428 | 10.38352 | 32736 ft | 425 kts | 141° |
| 2026-05-05 13:26 | 48.83255 | 10.41401 | 33071 ft | 423 kts | 141° |
| 2026-05-05 13:26 | 48.81169 | 10.44568 | 33378 ft | 424 kts | 137° |
| 2026-05-05 13:26 | 48.79158 | 10.47843 | 33646 ft | 425 kts | 137° |
| 2026-05-05 13:26 | 48.77155 | 10.51147 | 33909 ft | 424 kts | 137° |
| 2026-05-05 13:27 | 48.75167 | 10.54391 | 34057 ft | 425 kts | 137° |
| 2026-05-05 13:27 | 48.73134 | 10.57672 | 34186 ft | 428 kts | 138° |
| 2026-05-05 13:27 | 48.71071 | 10.60927 | 34398 ft | 427 kts | 139° |
| 2026-05-05 13:27 | 48.68998 | 10.64157 | 34625 ft | 426 kts | 139° |
| 2026-05-05 13:28 | 48.66929 | 10.67379 | 34804 ft | 427 kts | 139° |
| 2026-05-05 13:28 | 48.64855 | 10.70622 | 34964 ft | 428 kts | 138° |
| 2026-05-05 13:28 | 48.62825 | 10.73858 | 35134 ft | 429 kts | 137° |
| 2026-05-05 13:28 | 48.60773 | 10.77144 | 35337 ft | 429 kts | 137° |
| 2026-05-05 13:29 | 48.58720 | 10.80423 | 35498 ft | 430 kts | 137° |
| 2026-05-05 13:29 | 48.56669 | 10.83703 | 35663 ft | 430 kts | 137° |
| 2026-05-05 13:29 | 48.54640 | 10.86956 | 35795 ft | 431 kts | 137° |
| 2026-05-05 13:29 | 48.52542 | 10.90317 | 35780 ft | 434 kts | 137° |
| 2026-05-05 13:30 | 48.48389 | 10.96941 | 35815 ft | 436 kts | 138° |
| 2026-05-05 13:30 | 48.44230 | 11.03433 | 35825 ft | 435 kts | 138° |
| 2026-05-05 13:31 | 48.40037 | 11.09935 | 35835 ft | 435 kts | 138° |
| 2026-05-05 13:31 | 48.35809 | 11.16490 | 35827 ft | 434 kts | 138° |
| 2026-05-05 13:32 | 48.31704 | 11.23100 | 35776 ft | 437 kts | 133° |
| 2026-05-05 13:32 | 48.27961 | 11.30323 | 35807 ft | 438 kts | 131° |
| 2026-05-05 13:33 | 48.24281 | 11.37614 | 35817 ft | 437 kts | 131° |
| 2026-05-05 13:33 | 48.20585 | 11.44812 | 35815 ft | 438 kts | 132° |
| 2026-05-05 13:34 | 48.16831 | 11.52027 | 35813 ft | 438 kts | 132° |
| 2026-05-05 13:34 | 48.13069 | 11.59215 | 35786 ft | 438 kts | 132° |
| 2026-05-05 13:35 | 48.09318 | 11.66362 | 35787 ft | 438 kts | 132° |
| 2026-05-05 13:35 | 48.05536 | 11.73553 | 35779 ft | 439 kts | 132° |
| 2026-05-05 13:36 | 48.01766 | 11.80701 | 35773 ft | 440 kts | 132° |
| 2026-05-05 13:36 | 47.97958 | 11.87905 | 35771 ft | 442 kts | 132° |
| 2026-05-05 13:37 | 47.94134 | 11.95118 | 35754 ft | 443 kts | 132° |
| 2026-05-05 13:37 | 47.91643 | 11.99808 | 35766 ft | 444 kts | 132° |
| 2026-05-05 13:38 | 47.88659 | 12.05414 | 35774 ft | 445 kts | 132° |
| 2026-05-05 13:38 | 47.85528 | 12.11285 | 35767 ft | 446 kts | 132° |
| 2026-05-05 13:39 | 47.81678 | 12.18486 | 35772 ft | 447 kts | 132° |
| 2026-05-05 13:39 | 47.77788 | 12.25742 | 35758 ft | 448 kts | 132° |
| 2026-05-05 13:40 | 47.73897 | 12.32983 | 35772 ft | 448 kts | 132° |
| 2026-05-05 13:40 | 47.70001 | 12.40213 | 35784 ft | 447 kts | 133° |
| 2026-05-05 13:41 | 47.66131 | 12.47379 | 35772 ft | 448 kts | 133° |
| 2026-05-05 13:41 | 47.62205 | 12.54538 | 35772 ft | 446 kts | 136° |
| 2026-05-05 13:42 | 47.57777 | 12.60931 | 35777 ft | 443 kts | 141° |
| 2026-05-05 13:42 | 47.53253 | 12.67054 | 35766 ft | 441 kts | 141° |
| 2026-05-05 13:43 | 47.48731 | 12.73210 | 35784 ft | 442 kts | 141° |
| 2026-05-05 13:43 | 47.44247 | 12.79375 | 35783 ft | 443 kts | 141° |
| 2026-05-05 13:44 | 47.40482 | 12.84568 | 35818 ft | 443 kts | 141° |
| 2026-05-05 13:44 | 47.35979 | 12.90773 | 35827 ft | 444 kts | 141° |
| 2026-05-05 13:45 | 47.30674 | 12.98064 | 35822 ft | 446 kts | 140° |
| 2026-05-05 13:45 | 47.26219 | 13.04171 | 35831 ft | 447 kts | 141° |
| 2026-05-05 13:46 | 47.21647 | 13.10420 | 35862 ft | 449 kts | 141° |
| 2026-05-05 13:46 | 47.17059 | 13.16675 | 35871 ft | 450 kts | 141° |
| 2026-05-05 13:47 | 47.12480 | 13.22907 | 35863 ft | 449 kts | 141° |
| 2026-05-05 13:47 | 47.08669 | 13.28080 | 35884 ft | 448 kts | 141° |
| 2026-05-05 13:48 | 47.04081 | 13.34290 | 35875 ft | 448 kts | 141° |
| 2026-05-05 13:48 | 46.99542 | 13.40422 | 35903 ft | 446 kts | 141° |
| 2026-05-05 13:49 | 46.94991 | 13.46557 | 35908 ft | 444 kts | 141° |
| 2026-05-05 13:49 | 46.90458 | 13.52650 | 35916 ft | 442 kts | 141° |
| 2026-05-05 13:50 | 46.85893 | 13.58769 | 35898 ft | 444 kts | 141° |
| 2026-05-05 13:50 | 46.81363 | 13.64828 | 35931 ft | 446 kts | 141° |
| 2026-05-05 13:51 | 46.76778 | 13.70947 | 35916 ft | 448 kts | 141° |
| 2026-05-05 13:51 | 46.72183 | 13.77065 | 35917 ft | 449 kts | 141° |
| 2026-05-05 13:52 | 46.67565 | 13.83198 | 35938 ft | 451 kts | 141° |
| 2026-05-05 13:52 | 46.62922 | 13.89350 | 35935 ft | 453 kts | 141° |
| 2026-05-05 13:53 | 46.58245 | 13.95532 | 35947 ft | 455 kts | 141° |
| 2026-05-05 13:53 | 46.53642 | 14.01602 | 35939 ft | 457 kts | 141° |
| 2026-05-05 13:54 | 46.48931 | 14.07799 | 35948 ft | 456 kts | 141° |
| 2026-05-05 13:54 | 46.44222 | 14.13979 | 35958 ft | 457 kts | 141° |
| 2026-05-05 13:55 | 46.39489 | 14.20174 | 35971 ft | 457 kts | 141° |
| 2026-05-05 13:55 | 46.34777 | 14.26328 | 35997 ft | 457 kts | 141° |
| 2026-05-05 13:56 | 46.30075 | 14.32454 | 36016 ft | 455 kts | 141° |
| 2026-05-05 13:56 | 46.25386 | 14.38547 | 36010 ft | 454 kts | 141° |
| 2026-05-05 13:57 | 46.20702 | 14.44619 | 36017 ft | 452 kts | 141° |
| 2026-05-05 13:57 | 46.16026 | 14.50666 | 36016 ft | 450 kts | 141° |
| 2026-05-05 13:58 | 46.11374 | 14.56669 | 36006 ft | 449 kts | 141° |
| 2026-05-05 13:58 | 46.06706 | 14.62677 | 35997 ft | 447 kts | 141° |
| 2026-05-05 13:59 | 45.99781 | 14.71564 | 35976 ft | 447 kts | 141° |
| 2026-05-05 14:00 | 45.92812 | 14.80475 | 35979 ft | 450 kts | 141° |
| 2026-05-05 14:00 | 45.88119 | 14.86459 | 35974 ft | 451 kts | 141° |
| 2026-05-05 14:01 | 45.83408 | 14.92452 | 35971 ft | 453 kts | 141° |
| 2026-05-05 14:01 | 45.78710 | 14.98415 | 35966 ft | 454 kts | 141° |
| 2026-05-05 14:02 | 45.74052 | 15.04314 | 35958 ft | 453 kts | 141° |
| 2026-05-05 14:02 | 45.69312 | 15.10302 | 35971 ft | 453 kts | 141° |
| 2026-05-05 14:03 | 45.64607 | 15.16232 | 35973 ft | 453 kts | 141° |
| 2026-05-05 14:03 | 45.59867 | 15.22192 | 35981 ft | 453 kts | 141° |
| 2026-05-05 14:04 | 45.55129 | 15.28135 | 35970 ft | 453 kts | 142° |
| 2026-05-05 14:04 | 45.50395 | 15.34060 | 35968 ft | 452 kts | 142° |
| 2026-05-05 14:05 | 45.45668 | 15.39963 | 35983 ft | 451 kts | 142° |
| 2026-05-05 14:05 | 45.40971 | 15.45813 | 35981 ft | 450 kts | 142° |
| 2026-05-05 14:06 | 45.36247 | 15.51685 | 35980 ft | 450 kts | 142° |
| 2026-05-05 14:06 | 45.31512 | 15.57556 | 35980 ft | 450 kts | 142° |
| 2026-05-05 14:07 | 45.26805 | 15.63378 | 35969 ft | 451 kts | 142° |
| 2026-05-05 14:07 | 45.22061 | 15.69233 | 35987 ft | 452 kts | 142° |
| 2026-05-05 14:08 | 45.17294 | 15.75103 | 35986 ft | 454 kts | 142° |
| 2026-05-05 14:08 | 45.12510 | 15.80981 | 35987 ft | 455 kts | 142° |
| 2026-05-05 14:09 | 45.07736 | 15.86832 | 35988 ft | 457 kts | 142° |
| 2026-05-05 14:09 | 45.02921 | 15.92721 | 35979 ft | 458 kts | 142° |
| 2026-05-05 14:10 | 44.98101 | 15.98603 | 35992 ft | 458 kts | 142° |
| 2026-05-05 14:10 | 44.93358 | 16.04376 | 35996 ft | 459 kts | 142° |
| 2026-05-05 14:11 | 44.88495 | 16.10283 | 35992 ft | 461 kts | 142° |
| 2026-05-05 14:11 | 44.83630 | 16.16178 | 35995 ft | 460 kts | 142° |
| 2026-05-05 14:12 | 44.78802 | 16.22017 | 35986 ft | 458 kts | 142° |
| 2026-05-05 14:12 | 44.73994 | 16.27817 | 36001 ft | 456 kts | 142° |
| 2026-05-05 14:13 | 44.69173 | 16.33618 | 36004 ft | 455 kts | 142° |
| 2026-05-05 14:13 | 44.64355 | 16.39403 | 36010 ft | 454 kts | 142° |
| 2026-05-05 14:14 | 44.59580 | 16.45123 | 36012 ft | 453 kts | 142° |
| 2026-05-05 14:14 | 44.54765 | 16.50879 | 36004 ft | 454 kts | 143° |
| 2026-05-05 14:15 | 44.49952 | 16.56619 | 36011 ft | 453 kts | 143° |
| 2026-05-05 14:15 | 44.45134 | 16.62352 | 36031 ft | 455 kts | 143° |
| 2026-05-05 14:16 | 44.40315 | 16.68072 | 36032 ft | 457 kts | 143° |
| 2026-05-05 14:16 | 44.35447 | 16.73839 | 36033 ft | 458 kts | 143° |
| 2026-05-05 14:17 | 44.30597 | 16.79572 | 36028 ft | 459 kts | 143° |
| 2026-05-05 14:17 | 44.25711 | 16.85335 | 36037 ft | 459 kts | 143° |
| 2026-05-05 14:18 | 44.20843 | 16.91062 | 36040 ft | 460 kts | 143° |
| 2026-05-05 14:18 | 44.15933 | 16.96827 | 36052 ft | 461 kts | 143° |
| 2026-05-05 14:19 | 44.11085 | 17.02506 | 36046 ft | 462 kts | 143° |
| 2026-05-05 14:19 | 44.06184 | 17.08234 | 36044 ft | 463 kts | 143° |
| 2026-05-05 14:20 | 44.01250 | 17.13988 | 36041 ft | 462 kts | 143° |
| 2026-05-05 14:20 | 43.96321 | 17.19724 | 36057 ft | 462 kts | 143° |
| 2026-05-05 14:21 | 43.91399 | 17.25438 | 36052 ft | 462 kts | 143° |
| 2026-05-05 14:21 | 43.86468 | 17.31149 | 36053 ft | 463 kts | 143° |
| 2026-05-05 14:22 | 43.81525 | 17.36863 | 36061 ft | 463 kts | 144° |
| 2026-05-05 14:22 | 43.76566 | 17.42581 | 36055 ft | 463 kts | 144° |
| 2026-05-05 14:23 | 43.71615 | 17.48278 | 36064 ft | 463 kts | 143° |
| 2026-05-05 14:23 | 43.66676 | 17.53948 | 36051 ft | 463 kts | 143° |
| 2026-05-05 14:24 | 43.61737 | 17.59606 | 36060 ft | 463 kts | 144° |
| 2026-05-05 14:24 | 43.56769 | 17.65284 | 36060 ft | 463 kts | 144° |
| 2026-05-05 14:25 | 43.51837 | 17.70910 | 36059 ft | 463 kts | 144° |
| 2026-05-05 14:25 | 43.46841 | 17.76594 | 36059 ft | 464 kts | 143° |
| 2026-05-05 14:26 | 43.41880 | 17.82227 | 36076 ft | 465 kts | 143° |
| 2026-05-05 14:26 | 43.36890 | 17.87881 | 36084 ft | 465 kts | 143° |
| 2026-05-05 14:27 | 43.31899 | 17.93523 | 36078 ft | 466 kts | 143° |
| 2026-05-05 14:27 | 43.26846 | 17.99222 | 36079 ft | 467 kts | 144° |
| 2026-05-05 14:28 | 43.21925 | 18.04761 | 36078 ft | 468 kts | 144° |
| 2026-05-05 14:28 | 43.16909 | 18.10394 | 36075 ft | 468 kts | 144° |
| 2026-05-05 14:29 | 43.11852 | 18.16062 | 36071 ft | 468 kts | 144° |
| 2026-05-05 14:29 | 43.06829 | 18.21678 | 36082 ft | 467 kts | 144° |
| 2026-05-05 14:30 | 43.01811 | 18.27277 | 36070 ft | 466 kts | 144° |
| 2026-05-05 14:30 | 42.96774 | 18.32886 | 36088 ft | 466 kts | 144° |
| 2026-05-05 14:31 | 42.91736 | 18.38480 | 35957 ft | 471 kts | 144° |
| 2026-05-05 14:31 | 42.89216 | 18.41273 | 35745 ft | 475 kts | 144° |
| 2026-05-05 14:31 | 42.86639 | 18.44126 | 35565 ft | 474 kts | 143° |
| 2026-05-05 14:32 | 42.84079 | 18.46961 | 35358 ft | 472 kts | 144° |
| 2026-05-05 14:32 | 42.81544 | 18.49764 | 35186 ft | 471 kts | 144° |
| 2026-05-05 14:32 | 42.76450 | 18.55386 | 35105 ft | 472 kts | 144° |
| 2026-05-05 14:33 | 42.71354 | 18.60998 | 35106 ft | 473 kts | 144° |
| 2026-05-05 14:33 | 42.66228 | 18.66629 | 35085 ft | 474 kts | 144° |
| 2026-05-05 14:34 | 42.61075 | 18.72279 | 35112 ft | 476 kts | 144° |
| 2026-05-05 14:34 | 42.55927 | 18.77910 | 35104 ft | 478 kts | 144° |
| 2026-05-05 14:35 | 42.50732 | 18.83581 | 35094 ft | 479 kts | 144° |
| 2026-05-05 14:35 | 42.45561 | 18.89214 | 35097 ft | 479 kts | 144° |
| 2026-05-05 14:36 | 42.40321 | 18.94909 | 35097 ft | 480 kts | 145° |
| 2026-05-05 14:36 | 42.35209 | 19.00452 | 35102 ft | 481 kts | 144° |
| 2026-05-05 14:37 | 42.29970 | 19.06120 | 35103 ft | 483 kts | 145° |
| 2026-05-05 14:37 | 42.24705 | 19.11804 | 35099 ft | 485 kts | 145° |
| 2026-05-05 14:38 | 42.20314 | 19.16536 | 35105 ft | 486 kts | 144° |
| 2026-05-05 14:38 | 42.14157 | 19.23155 | 35087 ft | 486 kts | 145° |
| 2026-05-05 14:39 | 42.08854 | 19.28844 | 35093 ft | 487 kts | 145° |
| 2026-05-05 14:39 | 42.04423 | 19.33587 | 35093 ft | 489 kts | 145° |
| 2026-05-05 14:40 | 41.99106 | 19.39266 | 35102 ft | 490 kts | 145° |
| 2026-05-05 14:40 | 41.93746 | 19.44979 | 35076 ft | 492 kts | 146° |
| 2026-05-05 14:41 | 41.88400 | 19.50664 | 35096 ft | 493 kts | 145° |
| 2026-05-05 14:41 | 41.83002 | 19.56393 | 35098 ft | 494 kts | 146° |
| 2026-05-05 14:42 | 41.77587 | 19.62127 | 35100 ft | 496 kts | 146° |
| 2026-05-05 14:42 | 41.72194 | 19.67825 | 35092 ft | 497 kts | 146° |
| 2026-05-05 14:43 | 41.66750 | 19.73564 | 35095 ft | 498 kts | 146° |
| 2026-05-05 14:43 | 41.61297 | 19.79300 | 35093 ft | 498 kts | 146° |
| 2026-05-05 14:44 | 41.55860 | 19.85006 | 35103 ft | 500 kts | 146° |
| 2026-05-05 14:44 | 41.50360 | 19.90764 | 35100 ft | 501 kts | 146° |
| 2026-05-05 14:45 | 41.44867 | 19.96506 | 35084 ft | 502 kts | 146° |
| 2026-05-05 14:45 | 41.39431 | 20.02172 | 35093 ft | 503 kts | 145° |
| 2026-05-05 14:46 | 41.33947 | 20.07878 | 35085 ft | 503 kts | 146° |
| 2026-05-05 14:46 | 41.28417 | 20.13619 | 35091 ft | 503 kts | 146° |
| 2026-05-05 14:47 | 41.22917 | 20.19316 | 35092 ft | 503 kts | 145° |
| 2026-05-05 14:47 | 41.17379 | 20.25039 | 35070 ft | 503 kts | 146° |
| 2026-05-05 14:48 | 41.11831 | 20.30760 | 35085 ft | 504 kts | 145° |
| 2026-05-05 14:48 | 41.06312 | 20.36438 | 35079 ft | 504 kts | 146° |
| 2026-05-05 14:49 | 41.00762 | 20.42137 | 35075 ft | 503 kts | 146° |
| 2026-05-05 14:49 | 40.95233 | 20.47801 | 35090 ft | 503 kts | 145° |
| 2026-05-05 14:50 | 40.89724 | 20.53435 | 35087 ft | 503 kts | 145° |
| 2026-05-05 14:50 | 40.84155 | 20.59113 | 35085 ft | 504 kts | 145° |
| 2026-05-05 14:51 | 40.78638 | 20.64728 | 35076 ft | 504 kts | 145° |
| 2026-05-05 14:51 | 40.73069 | 20.70384 | 35074 ft | 504 kts | 145° |
| 2026-05-05 14:52 | 40.67526 | 20.76002 | 35059 ft | 504 kts | 145° |
| 2026-05-05 14:52 | 40.61938 | 20.81653 | 35093 ft | 505 kts | 145° |
| 2026-05-05 14:53 | 40.56351 | 20.87292 | 35069 ft | 506 kts | 145° |
| 2026-05-05 14:53 | 40.50774 | 20.92910 | 35064 ft | 507 kts | 145° |
| 2026-05-05 14:54 | 40.45310 | 20.98773 | 35050 ft | 509 kts | 140° |
| 2026-05-05 14:54 | 40.40176 | 21.05005 | 35051 ft | 510 kts | 138° |
| 2026-05-05 14:55 | 40.35004 | 21.11366 | 35057 ft | 510 kts | 139° |
| 2026-05-05 14:55 | 40.29783 | 21.17711 | 35064 ft | 511 kts | 138° |
| 2026-05-05 14:56 | 40.24554 | 21.24001 | 35061 ft | 511 kts | 139° |
| 2026-05-05 14:56 | 40.19301 | 21.30292 | 35055 ft | 512 kts | 139° |
| 2026-05-05 14:57 | 40.14050 | 21.36569 | 35049 ft | 512 kts | 139° |
| 2026-05-05 14:57 | 40.08794 | 21.42842 | 35049 ft | 513 kts | 139° |
| 2026-05-05 14:58 | 40.03542 | 21.49099 | 35052 ft | 513 kts | 139° |
| 2026-05-05 14:58 | 39.98281 | 21.55351 | 35048 ft | 514 kts | 139° |
| 2026-05-05 14:59 | 39.92968 | 21.61652 | 35042 ft | 514 kts | 139° |
| 2026-05-05 14:59 | 39.87669 | 21.67922 | 35043 ft | 515 kts | 139° |
| 2026-05-05 15:00 | 39.83273 | 21.73114 | 35043 ft | 515 kts | 139° |
| 2026-05-05 15:00 | 39.77077 | 21.80414 | 35052 ft | 516 kts | 138° |
| 2026-05-05 15:01 | 39.71760 | 21.86665 | 35036 ft | 516 kts | 138° |
| 2026-05-05 15:01 | 39.66405 | 21.92947 | 35029 ft | 516 kts | 138° |
| 2026-05-05 15:02 | 39.61095 | 21.99162 | 35020 ft | 515 kts | 138° |
| 2026-05-05 15:02 | 39.55876 | 22.05258 | 35022 ft | 515 kts | 138° |
| 2026-05-05 15:03 | 39.50553 | 22.11462 | 35024 ft | 514 kts | 138° |
| 2026-05-05 15:03 | 39.45243 | 22.17637 | 35024 ft | 514 kts | 138° |
| 2026-05-05 15:04 | 39.39918 | 22.23817 | 35022 ft | 513 kts | 138° |
| 2026-05-05 15:04 | 39.34590 | 22.29987 | 35012 ft | 512 kts | 138° |
| 2026-05-05 15:05 | 39.26664 | 22.39141 | 35027 ft | 510 kts | 138° |
| 2026-05-05 15:06 | 39.21368 | 22.45243 | 35024 ft | 510 kts | 138° |
| 2026-05-05 15:06 | 39.16072 | 22.51330 | 35031 ft | 508 kts | 138° |
| 2026-05-05 15:07 | 39.10796 | 22.57382 | 35024 ft | 506 kts | 138° |
| 2026-05-05 15:07 | 39.05578 | 22.63356 | 35015 ft | 504 kts | 138° |
| 2026-05-05 15:08 | 39.00345 | 22.69343 | 35017 ft | 502 kts | 138° |
| 2026-05-05 15:08 | 38.95131 | 22.75281 | 35031 ft | 501 kts | 139° |
| 2026-05-05 15:09 | 38.91668 | 22.79218 | 35071 ft | 501 kts | 138° |
| 2026-05-05 15:09 | 38.84697 | 22.87134 | 35043 ft | 503 kts | 139° |
| 2026-05-05 15:10 | 38.79429 | 22.93103 | 35018 ft | 504 kts | 139° |
| 2026-05-05 15:10 | 38.74163 | 22.99059 | 35029 ft | 504 kts | 139° |
| 2026-05-05 15:11 | 38.70529 | 23.03160 | 35035 ft | 505 kts | 139° |
| 2026-05-05 15:11 | 38.65237 | 23.09122 | 35026 ft | 505 kts | 139° |
| 2026-05-05 15:12 | 38.59951 | 23.15067 | 35042 ft | 506 kts | 139° |
| 2026-05-05 15:12 | 38.54685 | 23.20977 | 35031 ft | 506 kts | 139° |
| 2026-05-05 15:13 | 38.49392 | 23.26905 | 35023 ft | 505 kts | 139° |
| 2026-05-05 15:13 | 38.44126 | 23.32790 | 35041 ft | 505 kts | 139° |
| 2026-05-05 15:14 | 38.38824 | 23.38704 | 35035 ft | 505 kts | 139° |
| 2026-05-05 15:14 | 38.33533 | 23.44593 | 35050 ft | 504 kts | 139° |
| 2026-05-05 15:15 | 38.29137 | 23.49477 | 35032 ft | 504 kts | 139° |
| 2026-05-05 15:15 | 38.23846 | 23.55346 | 35035 ft | 503 kts | 139° |
| 2026-05-05 15:16 | 38.17700 | 23.62148 | 35025 ft | 503 kts | 139° |
| 2026-05-05 15:16 | 38.12414 | 23.67984 | 35018 ft | 503 kts | 139° |
| 2026-05-05 15:17 | 38.07139 | 23.73798 | 35029 ft | 501 kts | 139° |
| 2026-05-05 15:17 | 38.01882 | 23.79580 | 35033 ft | 502 kts | 139° |
| 2026-05-05 15:18 | 37.96610 | 23.85368 | 35027 ft | 502 kts | 139° |
| 2026-05-05 15:18 | 37.95056 | 23.87071 | 35038 ft | 502 kts | 139° |
| 2026-05-05 15:19 | 37.94398 | 23.87792 | 35041 ft | 502 kts | 139° |
| 2026-05-05 15:19 | 37.90551 | 23.92005 | 35049 ft | 502 kts | 139° |
| 2026-05-05 15:20 | 37.85266 | 23.97782 | 35059 ft | 502 kts | 139° |
| 2026-05-05 15:20 | 37.80067 | 24.03454 | 35046 ft | 503 kts | 139° |
| 2026-05-05 15:21 | 37.74756 | 24.09237 | 35062 ft | 503 kts | 139° |
| 2026-05-05 15:21 | 37.69440 | 24.15015 | 35050 ft | 504 kts | 139° |
| 2026-05-05 15:22 | 37.65039 | 24.19790 | 35038 ft | 504 kts | 139° |
| 2026-05-05 15:22 | 37.59699 | 24.25575 | 35050 ft | 504 kts | 139° |
| 2026-05-05 15:23 | 37.53339 | 24.31991 | 35047 ft | 504 kts | 148° |
| 2026-05-05 15:23 | 37.47362 | 24.36639 | 35051 ft | 503 kts | 150° |
| 2026-05-05 15:24 | 37.41367 | 24.41197 | 35048 ft | 498 kts | 150° |
| 2026-05-05 15:24 | 37.38490 | 24.43419 | 35027 ft | 483 kts | 150° |
| 2026-05-05 15:24 | 37.35665 | 24.45619 | 35028 ft | 470 kts | 149° |
| 2026-05-05 15:24 | 37.32901 | 24.47780 | 34614 ft | 469 kts | 149° |
| 2026-05-05 15:25 | 37.30091 | 24.49977 | 33460 ft | 485 kts | 149° |
| 2026-05-05 15:25 | 37.27174 | 24.52255 | 32466 ft | 497 kts | 149° |
| 2026-05-05 15:25 | 37.24245 | 24.54543 | 32057 ft | 493 kts | 149° |
| 2026-05-05 15:25 | 37.21378 | 24.56781 | 31649 ft | 489 kts | 148° |
| 2026-05-05 15:26 | 37.18501 | 24.59024 | 31261 ft | 485 kts | 148° |
| 2026-05-05 15:26 | 37.15645 | 24.61248 | 30881 ft | 482 kts | 148° |
| 2026-05-05 15:26 | 37.14385 | 24.62228 | 30702 ft | 480 kts | 148° |
| 2026-05-05 15:26 | 37.11551 | 24.64431 | 30365 ft | 476 kts | 148° |
| 2026-05-05 15:27 | 37.08734 | 24.66618 | 29961 ft | 473 kts | 148° |
| 2026-05-05 15:27 | 37.05974 | 24.68759 | 29538 ft | 470 kts | 148° |
| 2026-05-05 15:27 | 37.03217 | 24.70897 | 29447 ft | 458 kts | 148° |
| 2026-05-05 15:27 | 37.00530 | 24.72979 | 29359 ft | 447 kts | 148° |
| 2026-05-05 15:28 | 36.97924 | 24.74997 | 29176 ft | 439 kts | 148° |
| 2026-05-05 15:28 | 36.95339 | 24.76996 | 28810 ft | 436 kts | 148° |
| 2026-05-05 15:28 | 36.92780 | 24.78938 | 28387 ft | 434 kts | 152° |
| 2026-05-05 15:28 | 36.90038 | 24.80484 | 27968 ft | 430 kts | 164° |
| 2026-05-05 15:29 | 36.87195 | 24.81637 | 27630 ft | 426 kts | 164° |
| 2026-05-05 15:29 | 36.84380 | 24.82762 | 27297 ft | 423 kts | 165° |
| 2026-05-05 15:29 | 36.82525 | 24.83504 | 26969 ft | 424 kts | 164° |
| 2026-05-05 15:29 | 36.78779 | 24.85012 | 26319 ft | 426 kts | 164° |
| 2026-05-05 15:30 | 36.75978 | 24.86182 | 25998 ft | 423 kts | 163° |
| 2026-05-05 15:30 | 36.74128 | 24.86973 | 25578 ft | 426 kts | 163° |
| 2026-05-05 15:30 | 36.71280 | 24.88200 | 24795 ft | 436 kts | 163° |
| 2026-05-05 15:30 | 36.68391 | 24.89449 | 24290 ft | 438 kts | 163° |
| 2026-05-05 15:31 | 36.65525 | 24.90688 | 23966 ft | 433 kts | 163° |
| 2026-05-05 15:31 | 36.62693 | 24.91908 | 23670 ft | 428 kts | 163° |
| 2026-05-05 15:31 | 36.59884 | 24.93114 | 23285 ft | 424 kts | 163° |
| 2026-05-05 15:31 | 36.57146 | 24.94286 | 22817 ft | 418 kts | 163° |
| 2026-05-05 15:32 | 36.54396 | 24.95461 | 22233 ft | 416 kts | 163° |
| 2026-05-05 15:32 | 36.51661 | 24.96626 | 21671 ft | 414 kts | 163° |
| 2026-05-05 15:32 | 36.48949 | 24.97782 | 21155 ft | 410 kts | 163° |
| 2026-05-05 15:32 | 36.46268 | 24.98923 | 20665 ft | 406 kts | 163° |
| 2026-05-05 15:33 | 36.43658 | 25.00033 | 20185 ft | 402 kts | 163° |
| 2026-05-05 15:33 | 36.41061 | 25.01137 | 19715 ft | 399 kts | 163° |
| 2026-05-05 15:33 | 36.38445 | 25.02248 | 19236 ft | 396 kts | 163° |
| 2026-05-05 15:33 | 36.35843 | 25.03352 | 18769 ft | 392 kts | 163° |
| 2026-05-05 15:34 | 36.33296 | 25.04433 | 18310 ft | 389 kts | 163° |
| 2026-05-05 15:34 | 36.30743 | 25.05515 | 17778 ft | 386 kts | 162° |
| 2026-05-05 15:34 | 36.28207 | 25.06589 | 17250 ft | 383 kts | 162° |
| 2026-05-05 15:34 | 36.25692 | 25.07654 | 16751 ft | 380 kts | 162° |
| 2026-05-05 15:35 | 36.23191 | 25.08712 | 16235 ft | 377 kts | 162° |
| 2026-05-05 15:35 | 36.20741 | 25.09748 | 15753 ft | 374 kts | 162° |
| 2026-05-05 15:35 | 36.18282 | 25.10786 | 15263 ft | 372 kts | 162° |
| 2026-05-05 15:35 | 36.15853 | 25.11812 | 14905 ft | 365 kts | 162° |
| 2026-05-05 15:36 | 36.13467 | 25.12819 | 14571 ft | 358 kts | 162° |
| 2026-05-05 15:36 | 36.11125 | 25.13807 | 14254 ft | 351 kts | 162° |
| 2026-05-05 15:36 | 36.08833 | 25.14773 | 13935 ft | 345 kts | 162° |
| 2026-05-05 15:36 | 36.06603 | 25.15712 | 13598 ft | 340 kts | 162° |
| 2026-05-05 15:37 | 36.04383 | 25.16646 | 13267 ft | 334 kts | 162° |
| 2026-05-05 15:37 | 36.02201 | 25.17564 | 12944 ft | 328 kts | 162° |
| 2026-05-05 15:37 | 36.00058 | 25.18465 | 12641 ft | 322 kts | 162° |
| 2026-05-05 15:37 | 35.97964 | 25.19345 | 12352 ft | 316 kts | 162° |
| 2026-05-05 15:38 | 35.95889 | 25.20220 | 12069 ft | 314 kts | 161° |
| 2026-05-05 15:38 | 35.93825 | 25.21091 | 11781 ft | 313 kts | 161° |
| 2026-05-05 15:38 | 35.91765 | 25.21958 | 11498 ft | 311 kts | 161° |
| 2026-05-05 15:38 | 35.89749 | 25.22804 | 11208 ft | 310 kts | 161° |
| 2026-05-05 15:39 | 35.87711 | 25.23658 | 10922 ft | 308 kts | 161° |
| 2026-05-05 15:39 | 35.85676 | 25.24510 | 10635 ft | 307 kts | 161° |
| 2026-05-05 15:39 | 35.83654 | 25.25356 | 10342 ft | 306 kts | 161° |
| 2026-05-05 15:39 | 35.81653 | 25.26193 | 10227 ft | 298 kts | 161° |
| 2026-05-05 15:40 | 35.79679 | 25.27019 | 9897 ft | 300 kts | 161° |
| 2026-05-05 15:40 | 35.77712 | 25.27841 | 9613 ft | 298 kts | 161° |
| 2026-05-05 15:40 | 35.75749 | 25.28661 | 9322 ft | 296 kts | 161° |
| 2026-05-05 15:40 | 35.73825 | 25.29463 | 9049 ft | 295 kts | 161° |
| 2026-05-05 15:41 | 35.71882 | 25.30274 | 8769 ft | 293 kts | 160° |
| 2026-05-05 15:41 | 35.69947 | 25.31081 | 8486 ft | 292 kts | 160° |
| 2026-05-05 15:41 | 35.68037 | 25.31876 | 8207 ft | 291 kts | 160° |
| 2026-05-05 15:41 | 35.66111 | 25.32678 | 7937 ft | 290 kts | 160° |
| 2026-05-05 15:42 | 35.64227 | 25.33463 | 7667 ft | 289 kts | 160° |
| 2026-05-05 15:42 | 35.62322 | 25.34256 | 7380 ft | 289 kts | 160° |
| 2026-05-05 15:42 | 35.60419 | 25.35047 | 7100 ft | 288 kts | 160° |
| 2026-05-05 15:42 | 35.58519 | 25.35837 | 6827 ft | 287 kts | 160° |
| 2026-05-05 15:43 | 35.56626 | 25.36623 | 6562 ft | 287 kts | 160° |
| 2026-05-05 15:43 | 35.54741 | 25.37406 | 6293 ft | 286 kts | 160° |
| 2026-05-05 15:43 | 35.52847 | 25.38201 | 5905 ft | 289 kts | 160° |
| 2026-05-05 15:43 | 35.50967 | 25.39005 | 5639 ft | 288 kts | 159° |
| 2026-05-05 15:44 | 35.49072 | 25.39827 | 5444 ft | 283 kts | 159° |
| 2026-05-05 15:44 | 35.47243 | 25.40603 | 5214 ft | 281 kts | 160° |
| 2026-05-05 15:44 | 35.45404 | 25.41391 | 5000 ft | 277 kts | 160° |
| 2026-05-05 15:44 | 35.43595 | 25.42113 | 4889 ft | 269 kts | 162° |
| 2026-05-05 15:45 | 35.41831 | 25.42815 | 4725 ft | 264 kts | 161° |
| 2026-05-05 15:45 | 35.40104 | 25.43539 | 4518 ft | 261 kts | 160° |
| 2026-05-05 15:45 | 35.38383 | 25.44248 | 4326 ft | 256 kts | 169° |
| 2026-05-05 15:45 | 35.36692 | 25.44290 | 4425 ft | 231 kts | 195° |
| 2026-05-05 15:46 | 35.35335 | 25.43463 | 4245 ft | 216 kts | 228° |
| 2026-05-05 15:46 | 35.34684 | 25.41928 | 4081 ft | 197 kts | 264° |
| 2026-05-05 15:46 | 35.34501 | 25.40344 | 4039 ft | 177 kts | 260° |
| 2026-05-05 15:46 | 35.34136 | 25.38944 | 3754 ft | 171 kts | 253° |
| 2026-05-05 15:47 | 35.33733 | 25.37588 | 3375 ft | 171 kts | 252° |
| 2026-05-05 15:47 | 35.33432 | 25.36686 | 3209 ft | 165 kts | 251° |
| 2026-05-05 15:47 | 35.33010 | 25.35074 | 3014 ft | 141 kts | 261° |
| 2026-05-05 15:47 | 35.32851 | 25.33901 | 2710 ft | 138 kts | 268° |
| 2026-05-05 15:48 | 35.32859 | 25.32731 | 2419 ft | 139 kts | 275° |
| 2026-05-05 15:48 | 35.32892 | 25.31550 | 2274 ft | 136 kts | 272° |
| 2026-05-05 15:48 | 35.32947 | 25.30408 | 2063 ft | 135 kts | 278° |
| 2026-05-05 15:48 | 35.33066 | 25.29261 | 1811 ft | 136 kts | 279° |
| 2026-05-05 15:49 | 35.33188 | 25.28106 | 1662 ft | 134 kts | 279° |
| 2026-05-05 15:49 | 35.33331 | 25.26997 | 1494 ft | 134 kts | 277° |
| 2026-05-05 15:49 | 35.33374 | 25.25850 | 1265 ft | 137 kts | 275° |
| 2026-05-05 15:49 | 35.33457 | 25.24667 | 1096 ft | 140 kts | 279° |
| 2026-05-05 15:50 | 35.33551 | 25.23451 | 956 ft | 143 kts | 279° |
| 2026-05-05 15:50 | 35.33636 | 25.22300 | 720 ft | 135 kts | 279° |
| 2026-05-05 15:50 | 35.33735 | 25.21169 | 436 ft | 133 kts | 277° |
| 2026-05-05 15:50 | 35.33824 | 25.20022 | 286 ft | 135 kts | 278° |
| 2026-05-05 15:51 | 35.33911 | 25.18908 | 98 ft | 128 kts | 278° |
| 2026-05-05 15:51 | 35.33985 | 25.17949 | 93 ft | 87 kts | 273° |
| 2026-05-05 15:51 | 35.34017 | 25.17434 | 90 ft | 47 kts | 275° |
| 2026-05-05 15:51 | 35.34013 | 25.17155 | 90 ft | 27 kts | 248° |
| 2026-05-05 15:52 | 35.33977 | 25.17062 | 90 ft | 7 kts | 236° |
| 2026-05-05 15:52 | 35.33941 | 25.17072 | 91 ft | 6 kts | 109° |
| 2026-05-05 15:52 | 35.33938 | 25.17127 | 89 ft | 6 kts | 94° |
| 2026-05-05 15:52 | 35.33935 | 25.17180 | 89 ft | 6 kts | 94° |
| 2026-05-05 15:53 | 35.33931 | 25.17232 | 90 ft | 6 kts | 95° |
| 2026-05-05 15:53 | 35.33927 | 25.17283 | 90 ft | 6 kts | 95° |
| 2026-05-05 15:53 | 35.33924 | 25.17334 | 90 ft | 6 kts | 95° |
| 2026-05-05 15:53 | 35.33920 | 25.17383 | 90 ft | 6 kts | 95° |
| 2026-05-05 15:54 | 35.33916 | 25.17432 | 90 ft | 6 kts | 95° |
| 2026-05-05 15:54 | 35.33910 | 25.17479 | 92 ft | 6 kts | 112° |
| 2026-05-05 15:54 | 35.33876 | 25.17498 | 91 ft | 6 kts | 182° |
| 2026-05-05 15:54 | 35.33873 | 25.17497 | 92 ft | 0 kts | 183° |
| 2026-05-05 15:55 | 35.33872 | 25.17497 | 92 ft | 0 kts | 183° |
| 2026-05-05 15:55 | 35.33855 | 25.17483 | 90 ft | 5 kts | 237° |
| 2026-05-05 15:55 | 35.33859 | 25.17443 | 92 ft | 5 kts | 297° |
| 2026-05-05 15:55 | 35.33868 | 25.17433 | 90 ft | 0 kts | 319° |
| 2026-05-05 15:56 | 35.33870 | 25.17431 | 92 ft | 1 kts | 318° |
| 2026-05-05 15:56 | 35.33872 | 25.17428 | 91 ft | 0 kts | 319° |